Time;durP1;ratioP1;P1;durP2;ratioP2;P2;SDS_P1;SDS_P2;PMS_P1;PMS_P2;Temp;Humidity;BMP_temperature;BMP_pressure;BME280_temperature;BME280_humidity;BME280_pressure;Samples;Min_cycle;Max_cycle;Signal;HPM_P1;HPM_P2
2023/03/23 00:01:51;;;;;;;1999.90;999.90;;;12.00;99.90;;;;;;5055924;28;20036;-78
2023/03/23 00:04:17;;;;;;;1999.90;999.90;;;12.10;99.90;;;;;;5056544;28;20531;-78
2023/03/23 00:06:45;;;;;;;1999.90;999.90;;;12.00;99.90;;;;;;5056130;28;20100;-73
2023/03/23 00:09:12;;;;;;;1999.90;999.90;;;12.00;99.90;;;;;;5056048;28;20028;-74
2023/03/23 00:11:39;;;;;;;1999.90;999.90;;;12.00;99.90;;;;;;5048302;28;20029;-78
2023/03/23 00:14:05;;;;;;;1999.90;999.90;;;12.00;99.90;;;;;;5055681;28;20618;-78
2023/03/23 00:16:32;;;;;;;1999.90;999.90;;;12.00;99.90;;;;;;5054669;28;20059;-73
2023/03/23 00:19:19;;;;;;;1999.90;999.90;;;12.00;99.90;;;;;;5056032;28;20021;-74
2023/03/23 00:21:45;;;;;;;1999.90;999.90;;;12.20;99.90;;;;;;5055908;28;20039;-73
2023/03/23 00:24:18;;;;;;;1999.90;999.90;;;12.50;99.90;;;;;;5055799;28;20040;-77
2023/03/23 00:26:46;;;;;;;1999.90;999.90;;;12.60;99.90;;;;;;5055771;28;20043;-78
2023/03/23 00:29:21;;;;;;;1999.90;999.90;;;12.70;99.90;;;;;;5054612;28;20440;-77
2023/03/23 00:31:48;;;;;;;1999.90;999.90;;;12.80;99.90;;;;;;5055343;28;20028;-74
2023/03/23 00:34:19;;;;;;;1999.90;999.90;;;12.80;99.90;;;;;;5055954;28;20036;-74
2023/03/23 00:36:50;;;;;;;1999.90;999.90;;;12.70;99.90;;;;;;5055637;28;20475;-77
2023/03/23 00:39:16;;;;;;;1999.90;999.90;;;12.70;99.90;;;;;;5055185;28;20468;-77
2023/03/23 00:41:46;;;;;;;1999.90;999.90;;;12.70;99.90;;;;;;5054848;28;20036;-74
2023/03/23 00:44:16;;;;;;;1999.90;999.90;;;12.60;99.90;;;;;;5055412;28;20023;-77
2023/03/23 00:46:44;;;;;;;1999.90;999.90;;;12.60;99.90;;;;;;5055412;28;20415;-73
2023/03/23 00:49:12;;;;;;;1999.90;999.90;;;12.50;99.90;;;;;;5054164;28;20567;-73
2023/03/23 00:51:38;;;;;;;1999.90;999.90;;;12.50;99.90;;;;;;5054943;28;20064;-73
2023/03/23 00:54:04;;;;;;;1999.90;999.90;;;12.40;99.90;;;;;;5055139;28;20015;-78
2023/03/23 00:56:30;;;;;;;1999.90;999.90;;;12.30;99.90;;;;;;5055117;28;20024;-77
2023/03/23 00:58:56;;;;;;;1999.90;999.90;;;12.30;99.90;;;;;;5055087;28;20430;-73
2023/03/23 01:01:21;;;;;;;1999.90;999.90;;;12.30;99.90;;;;;;5053907;28;20039;-73
2023/03/23 01:03:47;;;;;;;1999.90;999.90;;;12.20;99.90;;;;;;5055129;28;20021;-73
2023/03/23 01:06:12;;;;;;;1999.90;999.90;;;12.20;99.90;;;;;;5053676;28;20029;-77
2023/03/23 01:08:44;;;;;;;1999.90;999.90;;;12.10;99.90;;;;;;5053743;28;20028;-77
2023/03/23 01:11:15;;;;;;;1999.90;999.90;;;12.00;99.90;;;;;;5040104;28;20083;-73
2023/03/23 01:13:42;;;;;;;1999.90;999.90;;;12.00;99.90;;;;;;5034913;28;20010;-73
2023/03/23 01:16:09;;;;;;;1999.90;999.90;;;12.00;99.90;;;;;;5036178;28;20018;-77
2023/03/23 01:18:35;;;;;;;1999.90;999.90;;;12.00;99.90;;;;;;5054508;28;20099;-77
2023/03/23 01:21:10;;;;;;;1999.90;999.90;;;12.00;99.90;;;;;;5055208;28;20138;-77
2023/03/23 01:23:36;;;;;;;1999.90;999.90;;;12.00;99.90;;;;;;5055020;28;20017;-77
2023/03/23 01:26:07;;;;;;;1999.90;999.90;;;12.00;99.90;;;;;;5054759;28;20407;-77
2023/03/23 01:28:33;;;;;;;1999.90;999.90;;;12.00;99.90;;;;;;5054494;28;20029;-73
2023/03/23 01:31:01;;;;;;;1999.90;999.90;;;12.00;99.90;;;;;;5054615;28;20025;-77
2023/03/23 01:33:27;;;;;;;1999.90;999.90;;;12.00;99.90;;;;;;5054630;28;20025;-77
2023/03/23 01:35:53;;;;;;;1999.90;999.90;;;12.00;99.90;;;;;;5054634;28;20100;-77
2023/03/23 01:38:18;;;;;;;1999.90;999.90;;;12.00;99.90;;;;;;5054394;28;20027;-73
2023/03/23 01:40:44;;;;;;;1999.90;999.90;;;12.00;99.90;;;;;;5053983;28;20079;-73
2023/03/23 01:43:14;;;;;;;1999.90;999.90;;;12.00;99.90;;;;;;5053929;28;20052;-77
2023/03/23 01:45:41;;;;;;;1999.90;999.90;;;12.00;99.90;;;;;;5054563;28;20017;-77
2023/03/23 01:48:13;;;;;;;1999.90;999.90;;;12.00;99.90;;;;;;5054469;28;20068;-77
2023/03/23 01:50:51;;;;;;;1999.90;999.90;;;12.10;99.90;;;;;;5053057;28;20497;-73
2023/03/23 01:53:18;;;;;;;1999.90;999.90;;;12.20;99.90;;;;;;5053964;28;20025;-73
2023/03/23 01:55:48;;;;;;;1999.90;999.90;;;12.30;99.90;;;;;;5054201;28;20021;-77
2023/03/23 01:58:15;;;;;;;1999.90;999.90;;;12.50;99.90;;;;;;5053840;28;20070;-77
2023/03/23 02:00:42;;;;;;;1999.90;999.90;;;12.70;99.90;;;;;;5054213;28;20100;-77
2023/03/23 02:03:10;;;;;;;1999.90;999.90;;;12.90;99.90;;;;;;5053642;28;20028;-73
2023/03/23 02:05:40;;;;;;;1999.90;999.90;;;12.90;99.90;;;;;;5053959;28;20025;-73
2023/03/23 02:08:08;;;;;;;1999.90;999.90;;;13.00;99.90;;;;;;5054103;28;20017;-77
2023/03/23 02:10:36;;;;;;;1999.90;999.90;;;13.00;99.90;;;;;;5044043;28;20030;-77
2023/03/23 02:13:04;;;;;;;1999.90;999.90;;;12.90;99.90;;;;;;5033713;28;20021;-73
2023/03/23 02:15:44;;;;;;;1999.90;999.90;;;12.90;99.90;;;;;;5033594;28;20036;-73
2023/03/23 02:18:25;;;;;;;1999.90;999.90;;;12.90;99.90;;;;;;5051672;28;20021;-73
2023/03/23 02:21:06;;;;;;;1999.90;999.90;;;12.90;99.90;;;;;;5053576;28;20494;-76
2023/03/23 02:23:51;;;;;;;1999.90;999.90;;;12.90;99.90;;;;;;5053361;28;20024;-78
2023/03/23 02:26:41;;;;;;;1999.90;999.90;;;12.90;99.90;;;;;;5053809;28;20040;-73
2023/03/23 02:29:13;;;;;;;1999.90;999.90;;;12.90;99.90;;;;;;5053649;28;20028;-73
2023/03/23 02:32:21;;;;;;;1999.90;999.90;;;12.90;99.90;;;;;;5053646;28;20025;-74
2023/03/23 02:35:08;;;;;;;1999.90;999.90;;;12.90;99.90;;;;;;5053302;28;20021;-74
2023/03/23 02:37:43;;;;;;;1999.90;999.90;;;12.80;99.90;;;;;;5053217;28;20013;-77
2023/03/23 02:40:12;;;;;;;1999.90;999.90;;;12.80;99.90;;;;;;5053554;28;20025;-77
2023/03/23 02:42:42;;;;;;;1999.90;999.90;;;12.90;99.90;;;;;;5052561;28;20029;-74
2023/03/23 02:45:11;;;;;;;1999.90;999.90;;;12.90;99.90;;;;;;5053082;28;20025;-73
2023/03/23 02:47:39;;;;;;;1999.90;999.90;;;12.90;99.90;;;;;;5052836;28;20037;-74
2023/03/23 02:50:10;;;;;;;1999.90;999.90;;;12.90;99.90;;;;;;5053141;28;20455;-77
2023/03/23 02:52:38;;;;;;;1999.90;999.90;;;12.90;99.90;;;;;;5052620;28;20048;-77
2023/03/23 02:55:05;;;;;;;1999.90;999.90;;;12.90;99.90;;;;;;5053115;28;20021;-73
2023/03/23 02:57:31;;;;;;;1999.90;999.90;;;12.90;99.90;;;;;;5053026;28;20025;-74
2023/03/23 02:59:57;;;;;;;1999.90;999.90;;;12.90;99.90;;;;;;5052806;28;20029;-77
2023/03/23 03:02:47;;;;;;;1999.90;999.90;;;13.00;99.90;;;;;;5052921;28;20093;-77
2023/03/23 03:05:31;;;;;;;1999.90;999.90;;;13.00;99.90;;;;;;5053139;28;20028;-77
2023/03/23 03:08:19;;;;;;;1999.90;999.90;;;13.10;99.90;;;;;;5053244;28;20021;-74
2023/03/23 03:10:44;;;;;;;1999.90;999.90;;;13.10;99.90;;;;;;5040348;28;20033;-73
2023/03/23 03:13:28;;;;;;;1999.90;999.90;;;13.00;99.90;;;;;;5032854;28;20033;-77
2023/03/23 03:15:57;;;;;;;1999.90;999.90;;;13.00;99.90;;;;;;5032570;28;20040;-77
2023/03/23 03:18:32;;;;;;;1999.90;999.90;;;13.00;99.90;;;;;;5052451;28;20088;-77
2023/03/23 03:21:06;;;;;;;1999.90;999.90;;;13.10;99.90;;;;;;5053149;28;20029;-73
2023/03/23 03:23:34;;;;;;;1999.90;999.90;;;13.20;99.90;;;;;;5052843;28;20020;-74
2023/03/23 03:26:04;;;;;;;1999.90;999.90;;;13.40;99.90;;;;;;5051523;28;20051;-77
2023/03/23 03:28:32;;;;;;;1999.90;999.90;;;13.60;99.90;;;;;;5052912;28;20086;-73
2023/03/23 03:31:01;;;;;;;1999.90;999.90;;;13.70;99.90;;;;;;5052415;28;20083;-76
2023/03/23 03:33:30;;;;;;;1999.90;999.90;;;13.80;99.90;;;;;;5053204;28;20026;-79
2023/03/23 03:35:59;;;;;;;1999.90;999.90;;;13.90;99.90;;;;;;5053176;28;20053;-74
2023/03/23 03:38:25;;;;;;;1999.90;999.90;;;14.00;99.90;;;;;;5052817;28;20021;-73
2023/03/23 03:40:52;;;;;;;1999.90;999.90;;;13.90;99.90;;;;;;5052714;28;20039;-77
2023/03/23 03:43:17;;;;;;;1999.90;999.90;;;13.90;99.90;;;;;;5052102;28;20040;-78
2023/03/23 03:45:44;;;;;;;1999.90;999.90;;;13.90;99.90;;;;;;5052407;28;20100;-78
2023/03/23 03:48:10;;;;;;;1999.90;999.90;;;13.80;99.90;;;;;;5052420;28;20048;-73
2023/03/23 03:50:36;;;;;;;1999.90;999.90;;;13.80;99.90;;;;;;5052368;28;20534;-73
2023/03/23 03:53:02;;;;;;;1999.90;999.90;;;13.60;99.90;;;;;;5052562;28;20021;-78
2023/03/23 03:55:28;;;;;;;1999.90;999.90;;;13.50;99.90;;;;;;5054539;28;20048;-78
2023/03/23 03:57:55;;;;;;;1999.90;999.90;;;13.30;99.90;;;;;;5052335;28;20029;-74
2023/03/23 04:00:22;;;;;;;1999.90;999.90;;;13.00;99.90;;;;;;5052236;28;20072;-74
2023/03/23 04:02:53;;;;;;;1999.90;999.90;;;12.90;99.90;;;;;;5050828;28;20403;-74
2023/03/23 04:05:20;;;;;;;1999.90;999.90;;;12.60;99.90;;;;;;5056268;28;20025;-74
2023/03/23 04:07:49;;;;;;;1999.90;999.90;;;12.50;99.90;;;;;;5056234;28;20021;-74
2023/03/23 04:10:15;;;;;;;1999.90;999.90;;;12.40;99.90;;;;;;5048524;28;20033;-78
2023/03/23 04:12:41;;;;;;;1999.90;999.90;;;12.30;99.90;;;;;;5036280;28;20090;-74
2023/03/23 04:15:07;;;;;;;1999.90;999.90;;;12.30;99.90;;;;;;5035817;28;20613;-74
2023/03/23 04:17:34;;;;;;;1999.90;999.90;;;12.20;99.90;;;;;;5047949;28;20047;-77
2023/03/23 04:20:11;;;;;;;1999.90;999.90;;;12.20;99.90;;;;;;5055838;28;20186;-77
2023/03/23 04:22:36;;;;;;;1999.90;999.90;;;12.20;99.90;;;;;;5055683;28;20017;-73
2023/03/23 04:25:05;;;;;;;1999.90;999.90;;;12.20;99.90;;;;;;5055568;28;20040;-77
2023/03/23 04:27:33;;;;;;;1999.90;999.90;;;12.20;99.90;;;;;;5055446;28;20484;-74
2023/03/23 04:29:58;;;;;;;1999.90;999.90;;;12.20;99.90;;;;;;5055334;28;20029;-74
2023/03/23 04:32:28;;;;;;;1999.90;999.90;;;12.20;99.90;;;;;;5055413;28;20017;-73
2023/03/23 04:34:55;;;;;;;1999.90;999.90;;;12.20;99.90;;;;;;5055532;28;20059;-75
2023/03/23 04:37:20;;;;;;;1999.90;999.90;;;12.20;99.90;;;;;;5055648;28;20391;-76
2023/03/23 04:39:46;;;;;;;1999.90;999.90;;;12.30;99.90;;;;;;5055038;28;20025;-73
2023/03/23 04:42:13;;;;;;;1999.90;999.90;;;12.20;99.90;;;;;;5055135;28;20025;-73
2023/03/23 04:44:39;;;;;;;1999.90;999.90;;;12.20;99.90;;;;;;5054679;28;20074;-75
2023/03/23 04:47:04;;;;;;;1999.90;999.90;;;12.20;99.90;;;;;;5055350;28;20028;-76
2023/03/23 04:49:30;;;;;;;1999.90;999.90;;;12.20;99.90;;;;;;5053705;28;20487;-77
2023/03/23 04:51:56;;;;;;;1999.90;999.90;;;12.20;99.90;;;;;;5055006;28;20099;-73
2023/03/23 04:54:22;;;;;;;1999.90;999.90;;;12.20;99.90;;;;;;5055080;28;20541;-74
2023/03/23 04:56:48;;;;;;;1999.90;999.90;;;12.20;99.90;;;;;;5055191;28;20100;-76
2023/03/23 04:59:14;;;;;;;1999.90;999.90;;;12.20;99.90;;;;;;5055336;28;20052;-76
2023/03/23 05:01:45;;;;;;;1999.90;999.90;;;12.20;99.90;;;;;;5054800;28;20078;-76
2023/03/23 05:04:16;;;;;;;1999.90;999.90;;;12.30;99.90;;;;;;5054869;28;20123;-77
2023/03/23 05:06:45;;;;;;;1999.90;999.90;;;12.30;99.90;;;;;;5054940;28;20025;-73
2023/03/23 05:09:11;;;;;;;1999.90;999.90;;;12.30;99.90;;;;;;5054947;28;20542;-74
2023/03/23 05:11:37;;;;;;;1999.90;999.90;;;12.30;99.90;;;;;;5036178;28;20571;-74
2023/03/23 05:14:04;;;;;;;1999.90;999.90;;;12.30;99.90;;;;;;5034782;28;20157;-76
2023/03/23 05:16:30;;;;;;;1999.90;999.90;;;12.30;99.90;;;;;;5038156;28;20029;-76
2023/03/23 05:18:58;;;;;;;1999.90;999.90;;;12.40;99.90;;;;;;5054812;28;20086;-76
2023/03/23 05:21:24;;;;;;;1999.90;999.90;;;12.40;99.90;;;;;;5054757;28;20025;-74
2023/03/23 05:23:54;;;;;;;1999.90;999.90;;;12.40;99.90;;;;;;5054620;28;20086;-76
2023/03/23 05:26:21;;;;;;;1999.90;999.90;;;12.40;99.90;;;;;;5054505;28;20028;-76
2023/03/23 05:28:48;;;;;;;1999.90;999.90;;;12.40;99.90;;;;;;5054386;28;20028;-74
2023/03/23 05:31:13;;;;;;;1999.90;999.90;;;12.40;99.90;;;;;;5054148;28;20021;-74
2023/03/23 05:33:39;;;;;;;1999.90;999.90;;;12.40;99.90;;;;;;5054407;28;20100;-74
2023/03/23 05:36:07;;;;;;;1999.90;999.90;;;12.40;99.90;;;;;;5054409;28;20025;-76
2023/03/23 05:38:32;;;;;;;1999.90;999.90;;;12.50;99.90;;;;;;5054316;28;20025;-76
2023/03/23 05:41:02;;;;;;;1999.90;999.90;;;12.50;99.90;;;;;;5054122;28;20438;-76
2023/03/23 05:43:27;;;;;;;1999.90;999.90;;;12.40;99.90;;;;;;5054519;28;20021;-77
2023/03/23 05:45:53;;;;;;;1999.90;999.90;;;12.40;99.90;;;;;;5053448;28;20031;-76
2023/03/23 05:48:18;;;;;;;1999.90;999.90;;;12.40;99.90;;;;;;5054030;28;20051;-76
2023/03/23 05:50:45;;;;;;;1999.90;999.90;;;12.40;99.90;;;;;;5054134;28;20033;-76
2023/03/23 05:53:10;;;;;;;1999.90;999.90;;;12.40;99.90;;;;;;5054063;28;20024;-75
2023/03/23 05:55:36;;;;;;;1999.90;999.90;;;12.40;99.90;;;;;;5054178;28;20033;-76
2023/03/23 05:58:01;;;;;;;1999.90;999.90;;;12.40;99.90;;;;;;5052646;28;20045;-75
2023/03/23 06:00:29;;;;;;;1999.90;999.90;;;12.40;99.90;;;;;;5053810;28;20029;-76
2023/03/23 06:02:56;;;;;;;1999.90;999.90;;;12.40;99.90;;;;;;5053650;28;20021;-75
2023/03/23 06:05:23;;;;;;;1999.90;999.90;;;12.40;99.90;;;;;;5053646;28;20057;-76
2023/03/23 06:07:49;;;;;;;1999.90;999.90;;;12.50;99.90;;;;;;5053667;28;20017;-75
2023/03/23 06:10:16;;;;;;;1999.90;999.90;;;12.50;99.90;;;;;;5045868;28;20437;-75
2023/03/23 06:12:42;;;;;;;1999.90;999.90;;;12.50;99.90;;;;;;5033914;28;20018;-75
2023/03/23 06:15:08;;;;;;;1999.90;999.90;;;12.50;99.90;;;;;;5048781;28;20022;-75
2023/03/23 06:17:36;;;;;;;1999.90;999.90;;;12.50;99.90;;;;;;5046397;28;20044;-76
2023/03/23 06:20:04;;;;;;;1999.90;999.90;;;12.50;99.90;;;;;;5053517;28;20074;-76
2023/03/23 06:22:30;;;;;;;1999.90;999.90;;;12.50;99.90;;;;;;5052426;28;20571;-76
2023/03/23 06:24:56;;;;;;;1999.90;999.90;;;12.50;99.90;;;;;;5053358;28;20111;-75
2023/03/23 06:27:23;;;;;;;1999.90;999.90;;;12.50;99.90;;;;;;5051569;28;20062;-75
2023/03/23 06:29:49;;;;;;;1999.90;999.90;;;12.50;99.90;;;;;;5052798;28;20032;-76
2023/03/23 06:32:15;;;;;;;1999.90;999.90;;;12.50;99.90;;;;;;5050527;28;20412;-76
2023/03/23 06:34:43;;;;;;;1999.90;999.90;;;12.60;99.90;;;;;;5051992;28;20029;-76
2023/03/23 06:37:10;;;;;;;1999.90;999.90;;;12.50;99.90;;;;;;5044000;28;20041;-74
2023/03/23 06:39:38;;;;;;;1999.90;999.90;;;12.60;99.90;;;;;;5052390;28;20114;-75
2023/03/23 06:42:03;;;;;;;1999.90;999.90;;;12.60;99.90;;;;;;5050482;28;20017;-75
2023/03/23 06:44:29;;;;;;;1999.90;999.90;;;12.60;99.90;;;;;;5052328;28;20502;-75
2023/03/23 06:46:55;;;;;;;1999.90;999.90;;;12.60;99.90;;;;;;5058786;28;20031;-74
2023/03/23 06:49:22;;;;;;;1999.90;999.90;;;12.60;99.90;;;;;;5055968;28;20048;-75
2023/03/23 06:51:47;;;;;;;1999.90;999.90;;;12.60;99.90;;;;;;5057894;28;20491;-76
2023/03/23 06:54:13;;;;;;;1999.90;999.90;;;12.60;99.90;;;;;;5072046;28;20027;-75
2023/03/23 06:56:38;;;;;;;1999.90;999.90;;;12.70;99.90;;;;;;5047531;28;20083;-75
2023/03/23 06:59:04;;;;;;;1999.90;999.90;;;12.60;99.90;;;;;;5044200;28;20021;-73
2023/03/23 07:01:29;;;;;;;1999.90;999.90;;;12.70;99.90;;;;;;5053220;28;20033;-76
2023/03/23 07:03:58;;;;;;;1999.90;999.90;;;12.70;99.90;;;;;;5069704;28;20036;-74
2023/03/23 07:06:25;;;;;;;1999.90;999.90;;;12.70;99.90;;;;;;5050004;28;20033;-73
2023/03/23 07:08:50;;;;;;;1999.90;999.90;;;12.70;99.90;;;;;;5050345;28;20060;-77
2023/03/23 07:11:16;;;;;;;1999.90;999.90;;;12.70;99.90;;;;;;5051322;28;20523;-74
2023/03/23 07:13:41;;;;;;;1999.90;999.90;;;12.70;99.90;;;;;;5036395;28;20031;-77
2023/03/23 07:16:08;;;;;;;1999.90;999.90;;;12.80;99.90;;;;;;5050589;28;20025;-73
2023/03/23 07:18:34;;;;;;;1999.90;999.90;;;12.80;99.90;;;;;;5068405;28;20056;-73
2023/03/23 07:21:00;;;;;;;1999.90;999.90;;;12.80;99.90;;;;;;5055731;28;20068;-75
2023/03/23 07:23:25;;;;;;;1999.90;999.90;;;12.80;99.90;;;;;;5034486;28;20041;-76
2023/03/23 07:25:51;;;;;;;1999.90;999.90;;;12.90;99.90;;;;;;5045595;28;20087;-76
2023/03/23 07:28:18;;;;;;;1999.90;999.90;;;12.90;99.90;;;;;;5048623;28;20021;-73
2023/03/23 07:30:44;;;;;;;1999.90;999.90;;;12.90;99.90;;;;;;5048673;28;20025;-73
2023/03/23 07:33:10;;;;;;;1999.90;999.90;;;12.90;99.90;;;;;;5047733;28;20029;-73
2023/03/23 07:35:37;;;;;;;1999.90;999.90;;;13.00;99.90;;;;;;5048673;28;20051;-73
2023/03/23 07:38:04;;;;;;;1999.90;999.90;;;13.00;99.90;;;;;;5047644;28;20056;-73
2023/03/23 07:40:33;;;;;;;1999.90;999.90;;;13.00;99.90;;;;;;5052001;28;20517;-76
2023/03/23 07:42:59;;;;;;;1999.90;999.90;;;13.10;99.90;;;;;;5050652;28;20079;-73
2023/03/23 07:45:25;;;;;;;1999.90;999.90;;;13.10;99.90;;;;;;5052933;28;20043;-76
2023/03/23 07:47:51;;;;;;;1999.90;999.90;;;13.10;99.90;;;;;;5053626;28;20119;-73
2023/03/23 07:50:17;;;;;;;1999.90;999.90;;;13.10;99.90;;;;;;5053977;28;20041;-76
2023/03/23 07:52:43;;;;;;;1999.90;999.90;;;13.10;99.90;;;;;;5051247;28;20381;-76
2023/03/23 07:55:17;;;;;;;1999.90;999.90;;;13.20;99.90;;;;;;5054533;28;20021;-73
2023/03/23 07:57:48;;;;;;;1999.90;999.90;;;13.20;99.90;;;;;;5049695;28;20438;-74
2023/03/23 08:00:18;;;;;;;1999.90;999.90;;;13.20;99.90;;;;;;5061672;28;20665;-77
2023/03/23 08:02:44;;;;;;;1999.90;999.90;;;13.30;99.90;;;;;;5058642;28;20114;-73
2023/03/23 08:05:10;;;;;;;1999.90;999.90;;;13.30;99.90;;;;;;5057741;28;20108;-77
2023/03/23 08:07:36;;;;;;;1999.90;999.90;;;13.30;99.90;;;;;;5050617;28;20120;-73
2023/03/23 08:10:03;;;;;;;1999.90;999.90;;;13.30;99.90;;;;;;5049211;28;20399;-73
2023/03/23 08:12:28;;;;;;;1999.90;999.90;;;13.40;99.90;;;;;;5043725;28;20048;-76
2023/03/23 08:14:54;;;;;;;1999.90;999.90;;;13.60;99.90;;;;;;5051691;28;20429;-76
2023/03/23 08:17:20;;;;;;;1999.90;999.90;;;13.60;99.90;;;;;;5049608;28;20037;-74
2023/03/23 08:19:46;;;;;;;1999.90;999.90;;;13.80;99.90;;;;;;5046498;28;20049;-76
2023/03/23 08:22:12;;;;;;;1999.90;999.90;;;13.70;99.90;;;;;;5049470;28;20043;-74
2023/03/23 08:24:38;;;;;;;1999.90;999.90;;;13.80;99.90;;;;;;5051506;28;20507;-74
2023/03/23 08:27:04;;;;;;;1999.90;999.90;;;13.70;99.90;;;;;;5050196;28;20029;-75
2023/03/23 08:29:30;;;;;;;1999.90;999.90;;;13.70;99.90;;;;;;5044451;28;20131;-74
2023/03/23 08:31:57;;;;;;;1999.90;999.90;;;13.70;99.90;;;;;;5054066;28;20515;-77
2023/03/23 08:34:25;;;;;;;1999.90;999.90;;;13.60;99.90;;;;;;5051303;28;20482;-75
2023/03/23 08:36:51;;;;;;;1999.90;999.90;;;13.60;99.90;;;;;;5046165;28;20051;-76
2023/03/23 08:39:17;;;;;;;1999.90;999.90;;;13.50;99.90;;;;;;5047404;28;20033;-77
2023/03/23 08:41:44;;;;;;;1999.90;999.90;;;13.60;99.90;;;;;;5053140;28;20029;-77
2023/03/23 08:44:10;;;;;;;1999.90;999.90;;;13.60;99.90;;;;;;5049246;28;20029;-74
2023/03/23 08:46:35;;;;;;;1999.90;999.90;;;13.60;99.90;;;;;;5048070;28;20178;-75
2023/03/23 08:49:01;;;;;;;1999.90;999.90;;;13.70;99.90;;;;;;5051109;28;20037;-74
2023/03/23 08:51:27;;;;;;;1999.90;999.90;;;13.80;99.90;;;;;;5056049;28;20417;-76
2023/03/23 08:53:54;;;;;;;1999.90;999.90;;;13.70;99.90;;;;;;5050266;28;20100;-75
2023/03/23 08:56:20;;;;;;;1999.90;999.90;;;13.70;99.90;;;;;;5045976;28;20025;-75
2023/03/23 08:58:45;;;;;;;1999.90;999.90;;;13.70;99.90;;;;;;5050724;28;20079;-74
2023/03/23 09:01:11;;;;;;;1999.90;999.90;;;13.60;99.90;;;;;;5051387;28;20532;-74
2023/03/23 09:03:38;;;;;;;1999.90;999.90;;;13.70;99.90;;;;;;5047812;28;20369;-76
2023/03/23 09:06:06;;;;;;;1999.90;999.90;;;13.60;99.90;;;;;;5050453;28;20029;-77
2023/03/23 09:08:32;;;;;;;1999.90;999.90;;;13.60;99.90;;;;;;5051179;28;20040;-74
2023/03/23 09:11:06;;;;;;;1999.90;999.90;;;13.50;99.90;;;;;;5050865;28;20028;-76
2023/03/23 09:13:33;;;;;;;1999.90;999.90;;;13.50;99.90;;;;;;5043707;28;20388;-73
2023/03/23 09:15:58;;;;;;;1999.90;999.90;;;13.50;99.90;;;;;;5044007;28;20027;-76
2023/03/23 09:18:25;;;;;;;1999.90;999.90;;;13.40;99.90;;;;;;5047144;28;20036;-76
2023/03/23 09:20:52;;;;;;;1999.90;999.90;;;13.50;99.90;;;;;;5049673;28;20032;-75
2023/03/23 09:23:17;;;;;;;1999.90;999.90;;;13.50;99.90;;;;;;5049931;28;20563;-74
2023/03/23 09:25:43;;;;;;;1999.90;999.90;;;13.50;99.90;;;;;;5054254;28;20111;-74
2023/03/23 09:28:09;;;;;;;1999.90;999.90;;;13.60;99.90;;;;;;5048668;28;20044;-74
2023/03/23 09:30:37;;;;;;;1999.90;999.90;;;13.60;99.90;;;;;;5049096;28;20029;-76
2023/03/23 09:33:04;;;;;;;1999.90;999.90;;;13.70;99.90;;;;;;5047733;28;20025;-77
2023/03/23 09:35:34;;;;;;;1999.90;999.90;;;13.70;99.90;;;;;;5050327;28;20384;-77
2023/03/23 09:38:00;;;;;;;1999.90;999.90;;;13.70;99.90;;;;;;5051057;28;20056;-77
2023/03/23 09:40:41;;;;;;;1999.90;999.90;;;13.80;99.90;;;;;;5048483;28;20025;-74
2023/03/23 09:43:21;;;;;;;1999.90;999.90;;;14.00;99.90;;;;;;5053059;28;20426;-74
2023/03/23 09:45:53;;;;;;;1999.90;999.90;;;14.10;99.90;;;;;;5046097;28;20064;-76
2023/03/23 09:48:27;;;;;;;1999.90;999.90;;;14.20;99.90;;;;;;5050891;28;20048;-77
2023/03/23 09:51:08;;;;;;;1999.90;999.90;;;14.50;99.90;;;;;;5047975;28;20569;-74
2023/03/23 09:53:39;;;;;;;1999.90;999.90;;;14.60;99.90;;;;;;5046989;28;20040;-74
2023/03/23 09:56:12;;;;;;;1999.90;999.90;;;14.60;99.90;;;;;;5041424;28;20103;-77
2023/03/23 09:58:49;;;;;;;1999.90;999.90;;;14.50;99.90;;;;;;5043717;28;20400;-78
2023/03/23 10:01:36;;;;;;;1999.90;999.90;;;14.70;99.90;;;;;;5047582;28;20037;-77
2023/03/23 10:04:26;;;;;;;1999.90;999.90;;;14.70;99.90;;;;;;5048448;28;20056;-74
2023/03/23 10:06:58;;;;;;;1999.90;999.90;;;14.80;99.90;;;;;;5047433;28;20029;-73
2023/03/23 10:09:26;;;;;;;1999.90;999.90;;;14.80;99.90;;;;;;5046575;28;20025;-73
2023/03/23 10:12:09;;;;;;;1999.90;999.90;;;14.90;99.90;;;;;;5042275;28;20043;-74
2023/03/23 10:14:58;;;;;;;1999.90;999.90;;;14.80;99.90;;;;;;5045540;28;20028;-76
2023/03/23 10:17:36;;;;;;;1999.90;999.90;;;14.90;99.90;;;;;;5053396;28;20021;-82
2023/03/23 10:20:44;;;;;;;1999.90;999.90;;;14.90;99.90;;;;;;5045111;28;20071;-76
2023/03/23 10:23:18;;;;;;;1999.90;999.90;;;14.80;99.90;;;;;;5028995;28;20040;-76
2023/03/23 10:26:40;;;;;;;1999.90;999.90;;;14.70;99.90;;;;;;5049651;28;20135;-84
2023/03/23 10:29:13;;;;;;;1999.90;999.90;;;14.80;99.90;;;;;;5028306;28;20412;-85
2023/03/23 10:31:43;;;;;;;1999.90;999.90;;;14.80;99.90;;;;;;5048064;28;20042;-75
2023/03/23 10:34:23;;;;;;;1999.90;999.90;;;14.80;99.90;;;;;;5048508;28;20220;-82
2023/03/23 10:36:58;;;;;;;1999.90;999.90;;;15.00;99.90;;;;;;5049064;28;20369;-79
2023/03/23 10:39:29;;;;;;;1999.90;999.90;;;15.10;99.90;;;;;;5048704;28;20534;-78
2023/03/23 10:41:54;;;;;;;1999.90;999.90;;;15.20;99.90;;;;;;5047185;28;20033;-78
2023/03/23 10:44:25;;;;;;;1999.90;999.90;;;15.30;99.90;;;;;;5046233;28;20029;-78
2023/03/23 10:47:03;;;;;;;1999.90;999.90;;;15.20;99.90;;;;;;5060130;28;20043;-75
2023/03/23 10:49:38;;;;;;;1999.90;999.90;;;15.20;99.90;;;;;;5059678;28;20090;-79
2023/03/23 10:52:40;;;;;;;1999.90;999.90;;;15.30;99.90;;;;;;5048436;28;20164;-80
2023/03/23 10:55:18;;;;;;;1999.90;999.90;;;15.40;99.90;;;;;;5025159;28;20032;-78
2023/03/23 10:57:59;;;;;;;1999.90;999.90;;;15.40;99.90;;;;;;5025151;28;20171;-75
2023/03/23 11:00:28;;;;;;;1999.90;999.90;;;15.50;99.90;;;;;;5022605;28;20618;-76
2023/03/23 11:03:05;;;;;;;1999.90;999.90;;;15.60;99.90;;;;;;5028552;28;20096;-75
2023/03/23 11:05:52;;;;;;;1999.90;999.90;;;15.50;99.90;;;;;;5033703;28;20098;-75
2023/03/23 11:08:25;;;;;;;1999.90;999.90;;;15.50;99.90;;;;;;5027844;28;20043;-80
2023/03/23 11:11:25;;;;;;;1999.90;999.90;;;15.50;99.90;;;;;;5022799;28;20195;-74
2023/03/23 11:14:12;;;;;;;1999.90;999.90;;;15.50;99.90;;;;;;4997765;28;20048;-74
2023/03/23 11:16:44;;;;;;;1999.90;999.90;;;15.50;99.90;;;;;;5012154;28;20049;-80
2023/03/23 11:19:15;;;;;;;1999.90;999.90;;;15.70;99.90;;;;;;5027944;28;20485;-75
2023/03/23 11:21:50;;;;;;;1999.90;999.90;;;15.60;99.90;;;;;;5025707;28;20041;-74
2023/03/23 11:24:16;;;;;;;1999.90;999.90;;;15.70;99.90;;;;;;5021331;28;20087;-74
2023/03/23 11:26:44;;;;;;;1999.90;999.90;;;15.80;99.90;;;;;;5025702;28;20397;-74
2023/03/23 11:29:17;;;;;;;1999.90;999.90;;;15.80;99.90;;;;;;5043109;28;20047;-79
2023/03/23 11:31:50;;;;;;;1999.90;999.90;;;15.80;99.90;;;;;;5042429;28;20496;-80
2023/03/23 11:34:33;;;;;;;1999.90;999.90;;;15.70;99.90;;;;;;5048478;28;20100;-75
2023/03/23 11:37:05;;;;;;;1999.90;999.90;;;15.80;99.90;;;;;;5065858;28;20436;-74
2023/03/23 11:39:33;;;;;;;1999.90;999.90;;;15.60;99.90;;;;;;5059585;28;20037;-75
2023/03/23 11:42:01;;;;;;;1999.90;999.90;;;15.40;99.90;;;;;;5043495;28;20110;-77
2023/03/23 11:44:40;;;;;;;1999.90;999.90;;;15.30;99.90;;;;;;5048786;28;20476;-81
2023/03/23 11:47:18;;;;;;;1999.90;999.90;;;15.20;99.90;;;;;;5044806;28;20047;-79
2023/03/23 11:50:16;;;;;;;1999.90;999.90;;;15.10;99.90;;;;;;5041400;28;20133;-74
2023/03/23 11:52:52;;;;;;;1999.90;999.90;;;15.10;99.90;;;;;;5044441;28;20028;-76
2023/03/23 11:55:30;;;;;;;1999.90;999.90;;;15.20;99.90;;;;;;5049375;28;20017;-78
2023/03/23 11:57:59;;;;;;;1999.90;999.90;;;15.40;99.90;;;;;;5048722;28;20608;-78
2023/03/23 12:00:25;;;;;;;1999.90;999.90;;;15.60;99.90;;;;;;5046058;28;20032;-79
2023/03/23 12:03:12;;;;;;;1999.90;999.90;;;15.60;99.90;;;;;;5054759;28;20040;-75
2023/03/23 12:05:50;;;;;;;1999.90;999.90;;;15.60;99.90;;;;;;5047705;28;20025;-74
2023/03/23 12:08:40;;;;;;;1999.90;999.90;;;15.50;99.90;;;;;;5045567;28;20523;-79
2023/03/23 12:11:19;;;;;;;1999.90;999.90;;;15.70;99.90;;;;;;5045851;28;20029;-79
2023/03/23 12:14:00;;;;;;;1999.90;999.90;;;15.60;99.90;;;;;;5048683;28;20020;-79